sensor_id;sensor_type;location;lat;lon;timestamp;temperature;humidity
67379;DHT22;54262;44.642;-0.974;2023-02-26T00:02:18;4.70;99.90
67379;DHT22;54262;44.642;-0.974;2023-02-26T00:04:43;4.60;99.90
67379;DHT22;54262;44.642;-0.974;2023-02-26T00:07:09;4.80;99.90
67379;DHT22;54262;44.642;-0.974;2023-02-26T00:09:35;4.60;99.90
67379;DHT22;54262;44.642;-0.974;2023-02-26T00:12:01;4.70;99.90
67379;DHT22;54262;44.642;-0.974;2023-02-26T00:14:27;4.80;99.90
67379;DHT22;54262;44.642;-0.974;2023-02-26T00:19:45;4.60;99.90
67379;DHT22;54262;44.642;-0.974;2023-02-26T00:22:11;4.80;99.90
67379;DHT22;54262;44.642;-0.974;2023-02-26T00:24:36;4.70;99.90
67379;DHT22;54262;44.642;-0.974;2023-02-26T00:27:10;4.60;99.90
67379;DHT22;54262;44.642;-0.974;2023-02-26T00:29:37;4.60;99.90
67379;DHT22;54262;44.642;-0.974;2023-02-26T00:32:04;4.80;99.90
67379;DHT22;54262;44.642;-0.974;2023-02-26T00:34:30;4.60;99.90
67379;DHT22;54262;44.642;-0.974;2023-02-26T00:39:58;4.80;99.90
67379;DHT22;54262;44.642;-0.974;2023-02-26T00:42:26;4.70;99.90
67379;DHT22;54262;44.642;-0.974;2023-02-26T00:44:52;4.80;99.90
67379;DHT22;54262;44.642;-0.974;2023-02-26T00:55:15;4.70;99.90
67379;DHT22;54262;44.642;-0.974;2023-02-26T00:57:41;5.40;99.90
67379;DHT22;54262;44.642;-0.974;2023-02-26T01:00:07;5.10;99.90
67379;DHT22;54262;44.642;-0.974;2023-02-26T01:02:34;5.20;99.90
67379;DHT22;54262;44.642;-0.974;2023-02-26T01:05:00;5.30;99.90
67379;DHT22;54262;44.642;-0.974;2023-02-26T01:07:27;5.10;99.90
67379;DHT22;54262;44.642;-0.974;2023-02-26T01:09:57;5.10;99.90
67379;DHT22;54262;44.642;-0.974;2023-02-26T01:12:23;5.30;99.90
67379;DHT22;54262;44.642;-0.974;2023-02-26T01:14:49;5.10;99.90
67379;DHT22;54262;44.642;-0.974;2023-02-26T01:20:08;5.20;99.90
67379;DHT22;54262;44.642;-0.974;2023-02-26T01:22:51;5.40;99.90
67379;DHT22;54262;44.642;-0.974;2023-02-26T01:25:28;5.20;99.90
67379;DHT22;54262;44.642;-0.974;2023-02-26T01:27:54;5.10;99.90
67379;DHT22;54262;44.642;-0.974;2023-02-26T01:30:24;5.10;99.90
67379;DHT22;54262;44.642;-0.974;2023-02-26T01:38:17;5.20;99.90
67379;DHT22;54262;44.642;-0.974;2023-02-26T01:43:40;5.50;99.90
67379;DHT22;54262;44.642;-0.974;2023-02-26T01:46:22;5.50;99.90
67379;DHT22;54262;44.642;-0.974;2023-02-26T01:48:54;5.20;99.90
67379;DHT22;54262;44.642;-0.974;2023-02-26T01:54:05;4.90;99.90
67379;DHT22;54262;44.642;-0.974;2023-02-26T01:56:31;4.80;99.90
67379;DHT22;54262;44.642;-0.974;2023-02-26T01:58:57;4.70;99.90
67379;DHT22;54262;44.642;-0.974;2023-02-26T02:01:23;4.60;99.90
67379;DHT22;54262;44.642;-0.974;2023-02-26T02:03:49;4.50;99.90
67379;DHT22;54262;44.642;-0.974;2023-02-26T02:06:19;4.50;99.90
67379;DHT22;54262;44.642;-0.974;2023-02-26T02:08:46;4.40;99.90
67379;DHT22;54262;44.642;-0.974;2023-02-26T02:11:12;4.40;99.90
67379;DHT22;54262;44.642;-0.974;2023-02-26T02:14:00;4.20;99.90
67379;DHT22;54262;44.642;-0.974;2023-02-26T02:25:15;4.00;99.90
67379;DHT22;54262;44.642;-0.974;2023-02-26T02:33:21;3.80;99.90
67379;DHT22;54262;44.642;-0.974;2023-02-26T02:35:53;3.60;99.90
67379;DHT22;54262;44.642;-0.974;2023-02-26T02:38:27;3.60;99.90
67379;DHT22;54262;44.642;-0.974;2023-02-26T02:41:10;3.50;99.90
67379;DHT22;54262;44.642;-0.974;2023-02-26T02:43:38;4.10;99.90
67379;DHT22;54262;44.642;-0.974;2023-02-26T02:46:09;3.60;99.90
67379;DHT22;54262;44.642;-0.974;2023-02-26T02:48:43;3.40;99.90
67379;DHT22;54262;44.642;-0.974;2023-02-26T02:51:16;3.40;99.90
67379;DHT22;54262;44.642;-0.974;2023-02-26T02:53:52;3.70;99.90
67379;DHT22;54262;44.642;-0.974;2023-02-26T02:56:24;3.40;99.90
67379;DHT22;54262;44.642;-0.974;2023-02-26T02:59:02;3.30;99.90
67379;DHT22;54262;44.642;-0.974;2023-02-26T03:01:30;3.60;99.90
67379;DHT22;54262;44.642;-0.974;2023-02-26T03:06:29;3.20;99.90
67379;DHT22;54262;44.642;-0.974;2023-02-26T03:08:54;3.20;99.90
67379;DHT22;54262;44.642;-0.974;2023-02-26T03:11:21;3.20;99.90
67379;DHT22;54262;44.642;-0.974;2023-02-26T03:13:47;3.10;99.90
67379;DHT22;54262;44.642;-0.974;2023-02-26T03:19:37;3.00;99.90
67379;DHT22;54262;44.642;-0.974;2023-02-26T03:33:09;2.90;99.90
67379;DHT22;54262;44.642;-0.974;2023-02-26T03:35:53;2.80;99.90
67379;DHT22;54262;44.642;-0.974;2023-02-26T03:41:01;2.90;99.90
67379;DHT22;54262;44.642;-0.974;2023-02-26T03:43:57;2.70;99.90
67379;DHT22;54262;44.642;-0.974;2023-02-26T03:46:27;2.60;99.90
67379;DHT22;54262;44.642;-0.974;2023-02-26T03:48:56;2.80;99.90
67379;DHT22;54262;44.642;-0.974;2023-02-26T03:51:27;2.80;99.90
67379;DHT22;54262;44.642;-0.974;2023-02-26T03:54:03;2.50;99.90
67379;DHT22;54262;44.642;-0.974;2023-02-26T03:56:36;2.80;99.90
67379;DHT22;54262;44.642;-0.974;2023-02-26T03:59:03;3.20;99.90
67379;DHT22;54262;44.642;-0.974;2023-02-26T04:01:37;2.80;99.90
67379;DHT22;54262;44.642;-0.974;2023-02-26T04:04:10;2.90;99.90
67379;DHT22;54262;44.642;-0.974;2023-02-26T04:06:37;2.70;99.90
67379;DHT22;54262;44.642;-0.974;2023-02-26T04:09:03;2.60;99.90
67379;DHT22;54262;44.642;-0.974;2023-02-26T04:11:30;2.60;99.90
67379;DHT22;54262;44.642;-0.974;2023-02-26T04:13:59;2.60;99.90
67379;DHT22;54262;44.642;-0.974;2023-02-26T04:16:25;2.60;99.90
67379;DHT22;54262;44.642;-0.974;2023-02-26T04:18:51;2.60;99.90
67379;DHT22;54262;44.642;-0.974;2023-02-26T04:21:21;2.50;99.90
67379;DHT22;54262;44.642;-0.974;2023-02-26T04:23:48;2.70;99.90
67379;DHT22;54262;44.642;-0.974;2023-02-26T04:26:13;2.60;99.90
67379;DHT22;54262;44.642;-0.974;2023-02-26T04:28:40;2.50;99.90
67379;DHT22;54262;44.642;-0.974;2023-02-26T04:31:06;2.40;99.90
67379;DHT22;54262;44.642;-0.974;2023-02-26T04:33:32;2.40;99.90
67379;DHT22;54262;44.642;-0.974;2023-02-26T04:35:59;2.70;99.90
67379;DHT22;54262;44.642;-0.974;2023-02-26T04:38:25;2.70;99.90
67379;DHT22;54262;44.642;-0.974;2023-02-26T04:40:51;2.50;99.90
67379;DHT22;54262;44.642;-0.974;2023-02-26T04:43:17;2.50;99.90
67379;DHT22;54262;44.642;-0.974;2023-02-26T04:45:46;2.50;99.90
67379;DHT22;54262;44.642;-0.974;2023-02-26T04:48:13;2.40;99.90
67379;DHT22;54262;44.642;-0.974;2023-02-26T04:50:40;2.40;99.90
67379;DHT22;54262;44.642;-0.974;2023-02-26T04:53:05;2.40;99.90
67379;DHT22;54262;44.642;-0.974;2023-02-26T04:55:32;2.30;99.90
67379;DHT22;54262;44.642;-0.974;2023-02-26T04:58:01;2.20;99.90
67379;DHT22;54262;44.642;-0.974;2023-02-26T05:00:27;2.20;99.90
67379;DHT22;54262;44.642;-0.974;2023-02-26T05:02:53;2.10;99.90
67379;DHT22;54262;44.642;-0.974;2023-02-26T05:05:19;2.10;99.90
67379;DHT22;54262;44.642;-0.974;2023-02-26T05:07:45;2.00;99.90
67379;DHT22;54262;44.642;-0.974;2023-02-26T05:10:10;2.00;99.90
67379;DHT22;54262;44.642;-0.974;2023-02-26T05:12:36;2.10;99.90
67379;DHT22;54262;44.642;-0.974;2023-02-26T05:15:03;2.00;99.90
67379;DHT22;54262;44.642;-0.974;2023-02-26T05:17:29;2.10;99.90
67379;DHT22;54262;44.642;-0.974;2023-02-26T05:19:54;2.10;99.90
67379;DHT22;54262;44.642;-0.974;2023-02-26T05:22:20;2.00;99.90
67379;DHT22;54262;44.642;-0.974;2023-02-26T05:24:46;2.00;99.90
67379;DHT22;54262;44.642;-0.974;2023-02-26T05:27:11;1.90;99.90
67379;DHT22;54262;44.642;-0.974;2023-02-26T05:29:37;1.90;99.90
67379;DHT22;54262;44.642;-0.974;2023-02-26T05:32:05;1.80;99.90
67379;DHT22;54262;44.642;-0.974;2023-02-26T05:34:31;1.70;99.90
67379;DHT22;54262;44.642;-0.974;2023-02-26T05:36:59;1.70;99.90
67379;DHT22;54262;44.642;-0.974;2023-02-26T05:39:25;1.70;99.90
67379;DHT22;54262;44.642;-0.974;2023-02-26T05:41:50;1.60;99.90
67379;DHT22;54262;44.642;-0.974;2023-02-26T05:44:17;1.70;99.90
67379;DHT22;54262;44.642;-0.974;2023-02-26T05:46:43;1.60;99.90
67379;DHT22;54262;44.642;-0.974;2023-02-26T05:49:08;1.60;99.90
67379;DHT22;54262;44.642;-0.974;2023-02-26T05:51:34;1.50;99.90
67379;DHT22;54262;44.642;-0.974;2023-02-26T05:54:00;1.50;99.90
67379;DHT22;54262;44.642;-0.974;2023-02-26T05:56:25;1.50;99.90
67379;DHT22;54262;44.642;-0.974;2023-02-26T05:58:51;1.50;99.90
67379;DHT22;54262;44.642;-0.974;2023-02-26T06:01:17;1.50;99.90
67379;DHT22;54262;44.642;-0.974;2023-02-26T06:03:42;1.40;99.90
67379;DHT22;54262;44.642;-0.974;2023-02-26T06:06:10;1.50;99.90
67379;DHT22;54262;44.642;-0.974;2023-02-26T06:08:36;1.50;99.90
67379;DHT22;54262;44.642;-0.974;2023-02-26T06:11:03;1.50;99.90
67379;DHT22;54262;44.642;-0.974;2023-02-26T06:13:29;1.50;99.90
67379;DHT22;54262;44.642;-0.974;2023-02-26T06:15:55;1.50;99.90
67379;DHT22;54262;44.642;-0.974;2023-02-26T06:18:20;1.60;99.90
67379;DHT22;54262;44.642;-0.974;2023-02-26T06:20:46;1.60;99.90
67379;DHT22;54262;44.642;-0.974;2023-02-26T06:23:12;1.60;99.90
67379;DHT22;54262;44.642;-0.974;2023-02-26T06:25:40;1.50;99.90
67379;DHT22;54262;44.642;-0.974;2023-02-26T06:28:06;1.50;99.90
67379;DHT22;54262;44.642;-0.974;2023-02-26T06:30:31;1.90;99.90
67379;DHT22;54262;44.642;-0.974;2023-02-26T06:32:57;1.70;99.90
67379;DHT22;54262;44.642;-0.974;2023-02-26T06:35:23;2.10;99.90
67379;DHT22;54262;44.642;-0.974;2023-02-26T06:37:49;2.00;99.90
67379;DHT22;54262;44.642;-0.974;2023-02-26T06:40:15;2.00;99.90
67379;DHT22;54262;44.642;-0.974;2023-02-26T06:42:40;2.60;99.90
67379;DHT22;54262;44.642;-0.974;2023-02-26T06:45:06;2.80;99.90
67379;DHT22;54262;44.642;-0.974;2023-02-26T06:47:32;3.10;99.90
67379;DHT22;54262;44.642;-0.974;2023-02-26T06:49:58;2.50;99.90
67379;DHT22;54262;44.642;-0.974;2023-02-26T06:52:24;2.50;99.90
67379;DHT22;54262;44.642;-0.974;2023-02-26T06:54:49;3.50;99.90
67379;DHT22;54262;44.642;-0.974;2023-02-26T06:57:15;3.00;99.90
67379;DHT22;54262;44.642;-0.974;2023-02-26T06:59:41;3.30;99.90
67379;DHT22;54262;44.642;-0.974;2023-02-26T07:02:12;2.90;99.90
67379;DHT22;54262;44.642;-0.974;2023-02-26T07:04:39;3.30;99.90
67379;DHT22;54262;44.642;-0.974;2023-02-26T07:07:05;3.00;99.90
67379;DHT22;54262;44.642;-0.974;2023-02-26T07:09:31;3.30;99.90
67379;DHT22;54262;44.642;-0.974;2023-02-26T07:11:56;3.20;99.90
67379;DHT22;54262;44.642;-0.974;2023-02-26T07:14:22;3.30;99.90
67379;DHT22;54262;44.642;-0.974;2023-02-26T07:16:48;3.10;99.90
67379;DHT22;54262;44.642;-0.974;2023-02-26T07:19:13;4.00;99.90
67379;DHT22;54262;44.642;-0.974;2023-02-26T07:21:39;3.30;99.90
67379;DHT22;54262;44.642;-0.974;2023-02-26T07:24:05;3.30;99.90
67379;DHT22;54262;44.642;-0.974;2023-02-26T07:26:30;4.00;99.90
67379;DHT22;54262;44.642;-0.974;2023-02-26T07:28:56;3.60;99.90
67379;DHT22;54262;44.642;-0.974;2023-02-26T07:31:22;3.40;99.90
67379;DHT22;54262;44.642;-0.974;2023-02-26T07:33:48;3.90;99.90
67379;DHT22;54262;44.642;-0.974;2023-02-26T07:36:13;3.70;99.90
67379;DHT22;54262;44.642;-0.974;2023-02-26T07:38:39;4.30;99.90
67379;DHT22;54262;44.642;-0.974;2023-02-26T07:41:05;4.30;99.90
67379;DHT22;54262;44.642;-0.974;2023-02-26T07:43:30;3.70;99.90
67379;DHT22;54262;44.642;-0.974;2023-02-26T07:45:56;3.90;99.90
67379;DHT22;54262;44.642;-0.974;2023-02-26T07:48:22;3.80;99.90
67379;DHT22;54262;44.642;-0.974;2023-02-26T07:50:50;4.10;99.90
67379;DHT22;54262;44.642;-0.974;2023-02-26T07:53:16;4.00;99.90
67379;DHT22;54262;44.642;-0.974;2023-02-26T07:55:42;4.00;99.90
67379;DHT22;54262;44.642;-0.974;2023-02-26T07:58:07;4.00;99.90
67379;DHT22;54262;44.642;-0.974;2023-02-26T08:00:33;3.50;99.90
67379;DHT22;54262;44.642;-0.974;2023-02-26T08:02:58;3.80;99.90
67379;DHT22;54262;44.642;-0.974;2023-02-26T08:05:24;3.70;99.90
67379;DHT22;54262;44.642;-0.974;2023-02-26T08:07:50;3.90;99.90
67379;DHT22;54262;44.642;-0.974;2023-02-26T08:10:16;4.30;99.90
67379;DHT22;54262;44.642;-0.974;2023-02-26T08:12:42;4.20;99.90
67379;DHT22;54262;44.642;-0.974;2023-02-26T08:15:08;4.20;99.90
67379;DHT22;54262;44.642;-0.974;2023-02-26T08:17:35;4.30;99.90
67379;DHT22;54262;44.642;-0.974;2023-02-26T08:20:00;4.30;99.90
67379;DHT22;54262;44.642;-0.974;2023-02-26T08:22:26;4.20;99.90
67379;DHT22;54262;44.642;-0.974;2023-02-26T08:24:52;4.50;99.90
67379;DHT22;54262;44.642;-0.974;2023-02-26T08:27:17;4.30;99.90
67379;DHT22;54262;44.642;-0.974;2023-02-26T08:29:43;5.20;99.90
67379;DHT22;54262;44.642;-0.974;2023-02-26T08:32:11;4.20;99.90
67379;DHT22;54262;44.642;-0.974;2023-02-26T08:34:36;4.20;99.90
67379;DHT22;54262;44.642;-0.974;2023-02-26T08:37:02;4.50;99.90
67379;DHT22;54262;44.642;-0.974;2023-02-26T08:39:28;4.30;99.90
67379;DHT22;54262;44.642;-0.974;2023-02-26T08:41:57;4.30;99.90
67379;DHT22;54262;44.642;-0.974;2023-02-26T08:44:22;4.30;99.90
67379;DHT22;54262;44.642;-0.974;2023-02-26T08:46:48;4.60;99.90
67379;DHT22;54262;44.642;-0.974;2023-02-26T08:49:14;4.40;99.90
67379;DHT22;54262;44.642;-0.974;2023-02-26T08:51:39;4.30;99.90
67379;DHT22;54262;44.642;-0.974;2023-02-26T08:54:05;4.90;99.90
67379;DHT22;54262;44.642;-0.974;2023-02-26T08:56:31;5.30;96.20
67379;DHT22;54262;44.642;-0.974;2023-02-26T08:58:56;4.70;99.90
67379;DHT22;54262;44.642;-0.974;2023-02-26T09:01:22;4.80;99.80
67379;DHT22;54262;44.642;-0.974;2023-02-26T09:03:48;4.50;99.90
67379;DHT22;54262;44.642;-0.974;2023-02-26T09:06:13;5.00;98.40
67379;DHT22;54262;44.642;-0.974;2023-02-26T09:08:39;4.70;97.40
67379;DHT22;54262;44.642;-0.974;2023-02-26T09:11:05;4.90;99.30
67379;DHT22;54262;44.642;-0.974;2023-02-26T09:13:31;5.10;96.10
67379;DHT22;54262;44.642;-0.974;2023-02-26T09:15:57;5.00;98.50
67379;DHT22;54262;44.642;-0.974;2023-02-26T09:18:23;4.90;95.30
67379;DHT22;54262;44.642;-0.974;2023-02-26T09:20:48;4.80;95.10
67379;DHT22;54262;44.642;-0.974;2023-02-26T09:23:14;5.00;97.00
67379;DHT22;54262;44.642;-0.974;2023-02-26T09:25:39;5.50;93.60
67379;DHT22;54262;44.642;-0.974;2023-02-26T09:28:05;5.70;93.00
67379;DHT22;54262;44.642;-0.974;2023-02-26T09:30:31;5.40;90.80
67379;DHT22;54262;44.642;-0.974;2023-02-26T09:32:57;5.10;93.60
67379;DHT22;54262;44.642;-0.974;2023-02-26T09:35:23;5.50;91.50
67379;DHT22;54262;44.642;-0.974;2023-02-26T09:37:49;5.10;89.80
67379;DHT22;54262;44.642;-0.974;2023-02-26T09:46:40;5.40;90.30
67379;DHT22;54262;44.642;-0.974;2023-02-26T09:52:22;5.50;93.10
67379;DHT22;54262;44.642;-0.974;2023-02-26T09:54:52;5.80;88.90
67379;DHT22;54262;44.642;-0.974;2023-02-26T09:57:45;5.90;82.00
67379;DHT22;54262;44.642;-0.974;2023-02-26T10:03:19;5.30;86.00
67379;DHT22;54262;44.642;-0.974;2023-02-26T10:08:46;5.90;82.80
67379;DHT22;54262;44.642;-0.974;2023-02-26T10:13:51;6.30;77.60
67379;DHT22;54262;44.642;-0.974;2023-02-26T10:16:21;6.00;79.20
67379;DHT22;54262;44.642;-0.974;2023-02-26T10:19:07;5.80;84.50
67379;DHT22;54262;44.642;-0.974;2023-02-26T10:21:44;5.90;79.70
67379;DHT22;54262;44.642;-0.974;2023-02-26T10:24:39;6.50;78.00
67379;DHT22;54262;44.642;-0.974;2023-02-26T10:27:16;5.70;77.50
67379;DHT22;54262;44.642;-0.974;2023-02-26T10:30:26;6.10;71.90
67379;DHT22;54262;44.642;-0.974;2023-02-26T10:35:45;6.30;69.20
67379;DHT22;54262;44.642;-0.974;2023-02-26T10:38:15;6.30;68.50
67379;DHT22;54262;44.642;-0.974;2023-02-26T10:40:47;6.70;69.70
67379;DHT22;54262;44.642;-0.974;2023-02-26T10:43:24;6.40;65.10
67379;DHT22;54262;44.642;-0.974;2023-02-26T10:51:32;6.30;67.30
67379;DHT22;54262;44.642;-0.974;2023-02-26T10:54:05;6.30;72.10
67379;DHT22;54262;44.642;-0.974;2023-02-26T10:56:36;6.60;67.70
67379;DHT22;54262;44.642;-0.974;2023-02-26T10:59:01;6.10;64.50
67379;DHT22;54262;44.642;-0.974;2023-02-26T11:01:29;6.00;68.90
67379;DHT22;54262;44.642;-0.974;2023-02-26T11:04:02;6.60;61.20
67379;DHT22;54262;44.642;-0.974;2023-02-26T11:06:31;6.50;63.70
67379;DHT22;54262;44.642;-0.974;2023-02-26T11:08:59;6.50;62.10
67379;DHT22;54262;44.642;-0.974;2023-02-26T11:11:51;6.70;65.20
67379;DHT22;54262;44.642;-0.974;2023-02-26T11:14:17;6.60;63.80
67379;DHT22;54262;44.642;-0.974;2023-02-26T11:16:56;6.60;58.90
67379;DHT22;54262;44.642;-0.974;2023-02-26T11:19:35;6.80;58.00
67379;DHT22;54262;44.642;-0.974;2023-02-26T11:22:03;6.50;59.40
67379;DHT22;54262;44.642;-0.974;2023-02-26T11:24:37;7.40;54.80
67379;DHT22;54262;44.642;-0.974;2023-02-26T11:27:19;7.30;65.20
67379;DHT22;54262;44.642;-0.974;2023-02-26T11:29:53;6.90;58.30
67379;DHT22;54262;44.642;-0.974;2023-02-26T11:32:35;6.60;58.70
67379;DHT22;54262;44.642;-0.974;2023-02-26T11:35:02;6.40;55.80
67379;DHT22;54262;44.642;-0.974;2023-02-26T11:37:35;6.60;54.90
67379;DHT22;54262;44.642;-0.974;2023-02-26T11:40:03;7.20;56.00
67379;DHT22;54262;44.642;-0.974;2023-02-26T11:43:32;7.20;56.30
67379;DHT22;54262;44.642;-0.974;2023-02-26T11:45:27;6.90;54.30
67379;DHT22;54262;44.642;-0.974;2023-02-26T11:48:00;7.40;55.90
67379;DHT22;54262;44.642;-0.974;2023-02-26T11:50:27;7.30;56.10
67379;DHT22;54262;44.642;-0.974;2023-02-26T11:52:55;7.40;52.90
67379;DHT22;54262;44.642;-0.974;2023-02-26T11:55:28;7.30;52.50
67379;DHT22;54262;44.642;-0.974;2023-02-26T11:57:56;7.70;52.80
67379;DHT22;54262;44.642;-0.974;2023-02-26T12:00:36;8.00;52.30
67379;DHT22;54262;44.642;-0.974;2023-02-26T12:03:06;7.70;51.70
67379;DHT22;54262;44.642;-0.974;2023-02-26T12:05:37;7.70;50.30
67379;DHT22;54262;44.642;-0.974;2023-02-26T12:08:10;7.70;49.00
67379;DHT22;54262;44.642;-0.974;2023-02-26T12:10:42;7.70;51.90
67379;DHT22;54262;44.642;-0.974;2023-02-26T12:13:20;9.00;52.10
67379;DHT22;54262;44.642;-0.974;2023-02-26T12:15:56;8.30;49.90
67379;DHT22;54262;44.642;-0.974;2023-02-26T12:18:32;8.10;52.30
67379;DHT22;54262;44.642;-0.974;2023-02-26T12:21:05;8.20;47.80
67379;DHT22;54262;44.642;-0.974;2023-02-26T12:26:53;8.00;48.30
67379;DHT22;54262;44.642;-0.974;2023-02-26T12:32:19;8.70;47.70
67379;DHT22;54262;44.642;-0.974;2023-02-26T12:57:20;8.90;41.90
67379;DHT22;54262;44.642;-0.974;2023-02-26T13:00:18;8.70;45.40
67379;DHT22;54262;44.642;-0.974;2023-02-26T13:06:13;9.40;44.10
67379;DHT22;54262;44.642;-0.974;2023-02-26T13:09:03;8.70;45.00
67379;DHT22;54262;44.642;-0.974;2023-02-26T13:21:06;8.70;42.70
67379;DHT22;54262;44.642;-0.974;2023-02-26T13:23:41;8.90;42.50
67379;DHT22;54262;44.642;-0.974;2023-02-26T13:26:11;8.80;43.30
67379;DHT22;54262;44.642;-0.974;2023-02-26T13:31:40;8.90;40.90
67379;DHT22;54262;44.642;-0.974;2023-02-26T13:34:11;9.30;41.90
67379;DHT22;54262;44.642;-0.974;2023-02-26T13:36:38;9.70;45.50
67379;DHT22;54262;44.642;-0.974;2023-02-26T13:44:35;9.10;43.10
67379;DHT22;54262;44.642;-0.974;2023-02-26T13:47:31;8.90;42.40
67379;DHT22;54262;44.642;-0.974;2023-02-26T13:50:39;9.30;41.60
67379;DHT22;54262;44.642;-0.974;2023-02-26T13:55:51;9.10;41.40
67379;DHT22;54262;44.642;-0.974;2023-02-26T13:58:27;8.90;38.80
67379;DHT22;54262;44.642;-0.974;2023-02-26T14:01:03;9.40;41.60
67379;DHT22;54262;44.642;-0.974;2023-02-26T14:03:32;8.60;41.20
67379;DHT22;54262;44.642;-0.974;2023-02-26T14:08:49;9.30;43.00
67379;DHT22;54262;44.642;-0.974;2023-02-26T14:11:42;9.00;42.90
67379;DHT22;54262;44.642;-0.974;2023-02-26T14:16:56;9.10;40.80
67379;DHT22;54262;44.642;-0.974;2023-02-26T14:25:37;9.60;37.90
67379;DHT22;54262;44.642;-0.974;2023-02-26T14:31:16;8.40;38.10
67379;DHT22;54262;44.642;-0.974;2023-02-26T14:33:46;8.80;40.00
67379;DHT22;54262;44.642;-0.974;2023-02-26T14:39:04;9.40;39.90
67379;DHT22;54262;44.642;-0.974;2023-02-26T14:41:33;9.30;39.00
67379;DHT22;54262;44.642;-0.974;2023-02-26T14:46:42;8.60;40.10
67379;DHT22;54262;44.642;-0.974;2023-02-26T14:49:17;8.80;41.10
67379;DHT22;54262;44.642;-0.974;2023-02-26T15:08:15;8.90;38.40
67379;DHT22;54262;44.642;-0.974;2023-02-26T15:11:00;8.50;37.70
67379;DHT22;54262;44.642;-0.974;2023-02-26T15:24:39;8.30;37.90
67379;DHT22;54262;44.642;-0.974;2023-02-26T15:27:06;8.40;39.00
67379;DHT22;54262;44.642;-0.974;2023-02-26T15:29:36;9.00;38.00
67379;DHT22;54262;44.642;-0.974;2023-02-26T15:34:48;8.40;38.70
67379;DHT22;54262;44.642;-0.974;2023-02-26T15:37:22;8.10;37.60
67379;DHT22;54262;44.642;-0.974;2023-02-26T15:39:49;8.20;37.90
67379;DHT22;54262;44.642;-0.974;2023-02-26T15:42:17;7.90;36.50
67379;DHT22;54262;44.642;-0.974;2023-02-26T15:44:44;8.40;38.60
67379;DHT22;54262;44.642;-0.974;2023-02-26T15:47:10;8.10;37.40
67379;DHT22;54262;44.642;-0.974;2023-02-26T15:49:39;8.70;39.60
67379;DHT22;54262;44.642;-0.974;2023-02-26T15:52:08;8.00;38.10
67379;DHT22;54262;44.642;-0.974;2023-02-26T15:54:40;8.10;38.20
67379;DHT22;54262;44.642;-0.974;2023-02-26T15:57:08;7.80;37.10
67379;DHT22;54262;44.642;-0.974;2023-02-26T15:59:38;8.10;38.40
67379;DHT22;54262;44.642;-0.974;2023-02-26T16:02:20;8.30;37.40
67379;DHT22;54262;44.642;-0.974;2023-02-26T16:04:46;8.00;36.90
67379;DHT22;54262;44.642;-0.974;2023-02-26T16:07:12;7.80;38.60
67379;DHT22;54262;44.642;-0.974;2023-02-26T16:09:48;7.90;36.90
67379;DHT22;54262;44.642;-0.974;2023-02-26T16:14:54;8.10;36.70
67379;DHT22;54262;44.642;-0.974;2023-02-26T16:17:30;7.90;36.90
67379;DHT22;54262;44.642;-0.974;2023-02-26T16:19:59;8.00;37.40
67379;DHT22;54262;44.642;-0.974;2023-02-26T16:22:42;8.00;34.70
67379;DHT22;54262;44.642;-0.974;2023-02-26T16:30:30;7.30;36.50
67379;DHT22;54262;44.642;-0.974;2023-02-26T16:32:57;7.30;38.60
67379;DHT22;54262;44.642;-0.974;2023-02-26T16:35:30;7.40;39.40
67379;DHT22;54262;44.642;-0.974;2023-02-26T16:38:21;7.50;37.90
67379;DHT22;54262;44.642;-0.974;2023-02-26T16:40:59;8.00;38.40
67379;DHT22;54262;44.642;-0.974;2023-02-26T16:46:12;7.20;36.60
67379;DHT22;54262;44.642;-0.974;2023-02-26T16:48:53;7.60;38.10
67379;DHT22;54262;44.642;-0.974;2023-02-26T16:51:22;7.20;37.30
67379;DHT22;54262;44.642;-0.974;2023-02-26T16:53:53;7.30;37.10
67379;DHT22;54262;44.642;-0.974;2023-02-26T16:56:23;7.70;36.90
67379;DHT22;54262;44.642;-0.974;2023-02-26T16:59:16;7.50;36.00
67379;DHT22;54262;44.642;-0.974;2023-02-26T17:04:25;6.60;35.30
67379;DHT22;54262;44.642;-0.974;2023-02-26T17:06:53;6.40;36.70
67379;DHT22;54262;44.642;-0.974;2023-02-26T17:09:38;6.90;35.70
67379;DHT22;54262;44.642;-0.974;2023-02-26T17:14:36;6.40;37.40
67379;DHT22;54262;44.642;-0.974;2023-02-26T17:17:04;6.50;38.60
67379;DHT22;54262;44.642;-0.974;2023-02-26T17:19:30;7.30;38.50
67379;DHT22;54262;44.642;-0.974;2023-02-26T17:21:56;6.70;38.00
67379;DHT22;54262;44.642;-0.974;2023-02-26T17:24:28;6.80;40.00
67379;DHT22;54262;44.642;-0.974;2023-02-26T17:26:54;6.60;39.10
67379;DHT22;54262;44.642;-0.974;2023-02-26T17:29:33;5.90;39.60
67379;DHT22;54262;44.642;-0.974;2023-02-26T17:32:02;6.00;40.20
67379;DHT22;54262;44.642;-0.974;2023-02-26T17:34:27;6.20;41.30
67379;DHT22;54262;44.642;-0.974;2023-02-26T17:36:54;6.10;41.10
67379;DHT22;54262;44.642;-0.974;2023-02-26T17:39:21;6.10;42.10
67379;DHT22;54262;44.642;-0.974;2023-02-26T17:41:47;5.60;42.30
67379;DHT22;54262;44.642;-0.974;2023-02-26T17:44:13;5.50;42.90
67379;DHT22;54262;44.642;-0.974;2023-02-26T17:46:39;6.00;41.70
67379;DHT22;54262;44.642;-0.974;2023-02-26T17:49:05;6.20;42.10
67379;DHT22;54262;44.642;-0.974;2023-02-26T17:51:31;5.40;42.10
67379;DHT22;54262;44.642;-0.974;2023-02-26T17:53:57;6.20;42.50
67379;DHT22;54262;44.642;-0.974;2023-02-26T17:56:27;5.30;41.70
67379;DHT22;54262;44.642;-0.974;2023-02-26T17:58:54;6.20;41.20
67379;DHT22;54262;44.642;-0.974;2023-02-26T18:01:21;5.80;42.20
67379;DHT22;54262;44.642;-0.974;2023-02-26T18:03:48;6.00;42.40
67379;DHT22;54262;44.642;-0.974;2023-02-26T18:06:15;5.30;42.40
67379;DHT22;54262;44.642;-0.974;2023-02-26T18:08:41;4.90;42.50
67379;DHT22;54262;44.642;-0.974;2023-02-26T18:11:10;5.30;42.80
67379;DHT22;54262;44.642;-0.974;2023-02-26T18:13:36;5.30;42.80
67379;DHT22;54262;44.642;-0.974;2023-02-26T18:16:03;5.50;41.90
67379;DHT22;54262;44.642;-0.974;2023-02-26T18:18:32;4.80;43.40
67379;DHT22;54262;44.642;-0.974;2023-02-26T18:20:58;4.70;44.80
67379;DHT22;54262;44.642;-0.974;2023-02-26T18:23:25;4.70;43.40
67379;DHT22;54262;44.642;-0.974;2023-02-26T18:25:52;5.20;41.90
67379;DHT22;54262;44.642;-0.974;2023-02-26T18:28:21;5.00;44.60
67379;DHT22;54262;44.642;-0.974;2023-02-26T18:30:48;4.50;43.70
67379;DHT22;54262;44.642;-0.974;2023-02-26T18:33:13;4.30;44.50
67379;DHT22;54262;44.642;-0.974;2023-02-26T18:35:47;4.40;43.90
67379;DHT22;54262;44.642;-0.974;2023-02-26T18:38:18;4.70;43.80
67379;DHT22;54262;44.642;-0.974;2023-02-26T18:40:45;4.90;42.50
67379;DHT22;54262;44.642;-0.974;2023-02-26T18:43:11;4.60;44.00
67379;DHT22;54262;44.642;-0.974;2023-02-26T18:45:44;4.40;44.50
67379;DHT22;54262;44.642;-0.974;2023-02-26T18:48:12;4.20;44.50
67379;DHT22;54262;44.642;-0.974;2023-02-26T18:50:38;4.70;43.60
67379;DHT22;54262;44.642;-0.974;2023-02-26T18:53:04;4.30;44.40
67379;DHT22;54262;44.642;-0.974;2023-02-26T18:55:29;4.30;44.20
67379;DHT22;54262;44.642;-0.974;2023-02-26T18:57:55;4.10;44.50
67379;DHT22;54262;44.642;-0.974;2023-02-26T19:00:22;4.60;44.90
67379;DHT22;54262;44.642;-0.974;2023-02-26T19:02:48;4.20;45.20
67379;DHT22;54262;44.642;-0.974;2023-02-26T19:05:14;4.70;45.30
67379;DHT22;54262;44.642;-0.974;2023-02-26T19:07:41;4.40;44.40
67379;DHT22;54262;44.642;-0.974;2023-02-26T19:10:10;4.10;45.40
67379;DHT22;54262;44.642;-0.974;2023-02-26T19:12:38;4.10;45.70